Time;durP1;ratioP1;P1;durP2;ratioP2;P2;SDS_P1;SDS_P2;PMS_P1;PMS_P2;Temp;Humidity;BMP_temperature;BMP_pressure;BME280_temperature;BME280_humidity;BME280_pressure;Samples;Min_cycle;Max_cycle;Signal;HPM_P1;HPM_P2
2022/12/31 00:01:14;;;;;;;2.08;1.10;;;10.90;89.30;;;;;;5073368;28;20051;-78
2022/12/31 00:03:40;;;;;;;1.55;1.00;;;10.90;89.30;;;;;;5076073;28;20032;-78
2022/12/31 00:06:16;;;;;;;1.42;0.90;;;10.90;89.30;;;;;;5074751;28;20060;-75
2022/12/31 00:08:43;;;;;;;3.30;1.20;;;10.90;89.30;;;;;;5072663;28;20029;-78
2022/12/31 00:11:09;;;;;;;1.88;1.10;;;10.90;89.30;;;;;;5074566;28;20028;-78
2022/12/31 00:13:36;;;;;;;1.52;1.00;;;10.90;89.30;;;;;;5073591;28;20028;-78
2022/12/31 00:16:17;;;;;;;2.15;1.15;;;10.90;89.30;;;;;;5074595;28;20024;-77
2022/12/31 00:18:47;;;;;;;;;;;10.90;89.30;;;;;;5073663;28;20055;-77
2022/12/31 00:21:13;;;;;;;2.00;1.33;;;10.90;89.40;;;;;;5072790;28;19947;-80
2022/12/31 00:23:38;;;;;;;1.20;0.90;;;10.90;89.40;;;;;;5073875;28;20028;-80
2022/12/31 00:26:11;;;;;;;1.85;1.15;;;10.90;89.40;;;;;;5073161;28;20383;-81
2022/12/31 00:28:38;;;;;;;1.55;1.00;;;11.00;89.40;;;;;;5073111;28;20635;-79
2022/12/31 00:31:09;;;;;;;1.73;1.00;;;10.90;89.30;;;;;;5074923;28;20407;-78
2022/12/31 00:33:35;;;;;;;1.52;1.10;;;10.90;89.30;;;;;;5072812;28;20035;-78
2022/12/31 00:36:06;;;;;;;1.20;1.02;;;11.00;89.40;;;;;;5073100;28;20029;-79
2022/12/31 00:38:31;;;;;;;2.15;1.27;;;11.00;89.50;;;;;;5058419;28;20514;-80
2022/12/31 00:40:57;;;;;;;1.42;1.15;;;11.00;89.50;;;;;;5052899;28;20028;-77
2022/12/31 00:43:22;;;;;;;2.22;1.20;;;10.90;89.50;;;;;;5052657;28;20083;-79
2022/12/31 00:45:48;;;;;;;1.55;1.10;;;10.90;89.60;;;;;;5055911;28;20060;-79
2022/12/31 00:48:13;;;;;;;1.85;1.17;;;10.90;89.60;;;;;;5053788;28;20431;-79
2022/12/31 00:50:38;;;;;;;1.83;1.17;;;10.90;89.60;;;;;;5056576;28;20032;-79
2022/12/31 00:53:04;;;;;;;1.77;1.20;;;11.00;89.60;;;;;;5070879;28;20048;-80
2022/12/31 00:55:30;;;;;;;2.75;1.27;;;11.00;89.60;;;;;;5074591;28;20027;-79
2022/12/31 00:57:55;;;;;;;1.35;1.13;;;10.90;89.60;;;;;;5074261;28;20036;-80
2022/12/31 01:00:21;;;;;;;2.08;1.20;;;11.00;89.60;;;;;;5076146;28;20506;-80
2022/12/31 01:02:46;;;;;;;1.20;0.90;;;11.00;89.70;;;;;;5068191;28;20200;-76
2022/12/31 01:05:12;;;;;;;1.88;1.08;;;10.90;89.60;;;;;;5060197;28;20112;-77
2022/12/31 01:07:37;;;;;;;2.05;1.27;;;11.00;89.60;;;;;;5059771;28;20028;-77
2022/12/31 01:10:04;;;;;;;1.73;1.20;;;12.00;90.00;;;;;;5061076;28;20021;-76
2022/12/31 01:12:29;;;;;;;3.42;1.60;;;10.90;89.60;;;;;;5067898;28;20024;-79
2022/12/31 01:14:55;;;;;;;1.95;1.10;;;11.00;89.70;;;;;;5074434;28;20505;-79
2022/12/31 01:17:20;;;;;;;1.95;1.02;;;11.00;89.70;;;;;;5071046;28;20037;-78
2022/12/31 01:19:46;;;;;;;1.45;0.93;;;11.00;89.70;;;;;;5074152;28;20092;-80
2022/12/31 01:22:11;;;;;;;1.83;1.10;;;11.00;89.70;;;;;;5076444;28;20029;-80
2022/12/31 01:24:37;;;;;;;2.03;1.13;;;11.00;89.70;;;;;;5075483;28;20084;-81
2022/12/31 01:27:02;;;;;;;1.55;1.00;;;11.00;89.70;;;;;;5074420;28;20020;-80
2022/12/31 01:29:28;;;;;;;1.52;1.15;;;11.00;89.60;;;;;;5073944;28;20029;-77
2022/12/31 01:31:54;;;;;;;1.20;1.00;;;11.00;89.70;;;;;;5074677;28;20028;-77
2022/12/31 01:34:19;;;;;;;1.70;1.10;;;11.00;89.70;;;;;;5075086;28;20478;-80
2022/12/31 01:36:45;;;;;;;1.48;1.00;;;11.00;89.70;;;;;;5075543;28;20124;-80
2022/12/31 01:39:11;;;;;;;1.88;1.27;;;11.00;89.70;;;;;;5073062;28;20060;-79
2022/12/31 01:41:39;;;;;;;1.67;1.10;;;11.00;89.70;;;;;;5076152;28;20028;-77
2022/12/31 01:44:11;;;;;;;2.00;1.30;;;11.00;89.70;;;;;;5075294;28;20036;-77
2022/12/31 01:46:53;;;;;;;1.48;1.00;;;11.00;89.70;;;;;;5076275;28;20501;-79
2022/12/31 01:49:25;;;;;;;1.73;0.90;;;11.00;89.70;;;;;;5074127;28;20096;-77
2022/12/31 01:52:07;;;;;;;1.52;1.10;;;11.00;89.70;;;;;;5071926;28;20021;-79
2022/12/31 01:54:39;;;;;;;1.98;1.10;;;11.00;89.80;;;;;;5074594;28;20112;-80
2022/12/31 01:57:06;;;;;;;;;;;11.00;89.70;;;;;;5075692;28;20032;-80
2022/12/31 01:59:32;;;;;;;2.17;1.10;;;11.00;89.80;;;;;;5075431;28;19904;-79
2022/12/31 02:01:59;;;;;;;2.08;1.25;;;11.00;89.80;;;;;;5074925;28;20028;-79
2022/12/31 02:04:25;;;;;;;1.45;1.00;;;11.00;89.80;;;;;;5074382;28;20391;-79
2022/12/31 02:07:07;;;;;;;1.65;1.00;;;11.00;89.70;;;;;;5073016;28;20021;-78
2022/12/31 02:09:37;;;;;;;1.30;0.90;;;11.00;89.70;;;;;;5073397;28;20027;-80
2022/12/31 02:12:02;;;;;;;2.00;1.00;;;11.00;89.70;;;;;;5071718;28;20017;-79
2022/12/31 02:14:37;;;;;;;1.55;1.00;;;11.00;89.80;;;;;;5072767;28;20028;-79
2022/12/31 02:17:24;;;;;;;1.58;0.98;;;11.00;89.80;;;;;;5072994;28;20032;-78
2022/12/31 02:20:05;;;;;;;1.48;1.00;;;10.90;89.70;;;;;;5075327;28;20025;-80
2022/12/31 02:22:48;;;;;;;1.27;0.90;;;11.00;89.80;;;;;;5075706;28;20020;-79
2022/12/31 02:25:41;;;;;;;1.25;0.90;;;11.00;89.80;;;;;;5076368;28;20032;-79
2022/12/31 02:28:32;;;;;;;1.80;1.00;;;11.00;89.80;;;;;;5077751;28;20119;-80
2022/12/31 02:31:41;;;;;;;1.33;1.00;;;11.00;89.80;;;;;;5075376;28;20021;-77
2022/12/31 02:34:31;;;;;;;1.50;0.93;;;11.00;89.80;;;;;;5032998;28;20037;-79
2022/12/31 02:36:59;;;;;;;1.52;1.10;;;11.00;89.80;;;;;;5033037;28;20228;-80
2022/12/31 02:39:27;;;;;;;2.08;1.10;;;11.00;89.80;;;;;;5061453;28;20488;-79
2022/12/31 02:41:53;;;;;;;1.00;0.80;;;11.00;89.80;;;;;;5075939;28;20021;-80
2022/12/31 02:44:31;;;;;;;1.42;0.85;;;11.00;89.80;;;;;;5075732;28;20033;-79
2022/12/31 02:47:27;;;;;;;1.35;0.90;;;11.00;89.80;;;;;;5074317;28;20367;-78
2022/12/31 02:50:11;;;;;;;1.38;0.93;;;11.00;89.80;;;;;;5076303;28;20027;-79
2022/12/31 02:52:40;;;;;;;1.30;0.93;;;11.00;89.80;;;;;;5076505;28;20024;-79
2022/12/31 02:55:27;;;;;;;1.63;1.02;;;11.00;89.80;;;;;;5076909;28;20128;-79
2022/12/31 02:58:04;;;;;;;1.05;0.73;;;11.00;89.80;;;;;;5076472;28;20402;-78
2022/12/31 03:03:20;;;;;;;1.25;0.80;;;11.00;89.70;;;;;;5076248;28;20039;-79
2022/12/31 03:05:47;;;;;;;7.00;1.67;;;11.00;89.80;;;;;;5076474;28;20391;-79
2022/12/31 03:08:23;;;;;;;1.35;0.95;;;11.00;89.80;;;;;;5075661;28;20035;-78
2022/12/31 03:10:49;;;;;;;1.08;0.85;;;11.00;89.80;;;;;;5076756;28;20640;-79
2022/12/31 03:13:14;;;;;;;1.27;0.90;;;11.00;89.80;;;;;;5074829;28;20111;-78
2022/12/31 03:15:40;;;;;;;1.00;0.88;;;11.00;89.80;;;;;;5075116;28;20073;-79
2022/12/31 03:18:14;;;;;;;1.48;0.88;;;11.00;89.80;;;;;;5077326;28;20433;-80
2022/12/31 03:23:40;;;;;;;0.85;0.65;;;11.00;89.80;;;;;;5077114;28;20127;-79
2022/12/31 03:26:09;;;;;;;1.70;1.00;;;11.00;89.80;;;;;;5075508;28;20405;-78
2022/12/31 03:28:36;;;;;;;1.42;0.80;;;11.00;89.80;;;;;;5076936;28;20029;-78
2022/12/31 03:31:02;;;;;;;0.90;0.80;;;11.00;89.90;;;;;;5073244;28;20056;-78
2022/12/31 03:33:34;;;;;;;1.00;0.90;;;11.00;89.90;;;;;;5074185;28;20028;-78
2022/12/31 03:36:03;;;;;;;1.75;1.10;;;11.00;89.80;;;;;;5073414;28;20572;-78
2022/12/31 03:38:28;;;;;;;1.48;0.90;;;11.00;89.80;;;;;;5073645;28;20121;-78
2022/12/31 03:40:54;;;;;;;1.77;0.98;;;11.00;89.80;;;;;;5075836;28;20435;-79
2022/12/31 03:43:19;;;;;;;1.33;0.80;;;11.00;89.80;;;;;;5074703;28;20024;-78
2022/12/31 03:45:50;;;;;;;0.70;0.70;;;11.00;89.80;;;;;;5074067;28;20498;-79
2022/12/31 03:48:15;;;;;;;1.00;0.85;;;11.00;89.80;;;;;;5072229;28;20024;-78
2022/12/31 03:50:41;;;;;;;0.88;0.70;;;11.00;89.90;;;;;;5073975;28;20032;-78
2022/12/31 03:53:06;;;;;;;1.10;0.88;;;11.00;89.90;;;;;;5074742;28;20432;-80
2022/12/31 03:55:32;;;;;;;0.85;0.75;;;11.00;90.00;;;;;;5074888;28;20021;-80
2022/12/31 03:57:58;;;;;;;0.90;0.75;;;10.90;89.90;;;;;;5073255;28;20115;-77
2022/12/31 04:00:24;;;;;;;1.35;0.70;;;11.00;90.00;;;;;;5072968;28;20104;-78
2022/12/31 04:02:50;;;;;;;0.80;0.60;;;10.90;90.00;;;;;;5064509;28;20456;-79
2022/12/31 04:05:16;;;;;;;1.98;0.80;;;11.00;90.00;;;;;;5074028;28;20032;-80
2022/12/31 04:07:42;;;;;;;0.90;0.60;;;11.00;90.00;;;;;;5074795;28;20027;-78
2022/12/31 04:10:10;;;;;;;1.85;0.82;;;10.90;90.00;;;;;;5075979;28;20032;-80
2022/12/31 04:12:36;;;;;;;1.10;0.80;;;11.00;90.10;;;;;;5075503;28;20488;-80
2022/12/31 04:15:02;;;;;;;1.30;0.80;;;11.00;90.10;;;;;;5076087;28;20029;-80
2022/12/31 04:17:27;;;;;;;1.27;0.80;;;11.00;90.10;;;;;;5075514;28;20081;-77
2022/12/31 04:19:53;;;;;;;0.60;0.60;;;11.00;90.10;;;;;;5073207;28;20395;-78
2022/12/31 04:22:19;;;;;;;0.60;0.60;;;10.90;90.00;;;;;;5074117;28;20028;-79
2022/12/31 04:24:44;;;;;;;0.82;0.68;;;11.00;90.00;;;;;;5075414;28;20089;-77
2022/12/31 04:27:11;;;;;;;1.58;0.80;;;11.00;90.00;;;;;;5075734;28;20429;-79
2022/12/31 04:29:37;;;;;;;1.00;0.77;;;11.00;90.00;;;;;;5075917;28;20036;-79
2022/12/31 04:32:04;;;;;;;0.88;0.70;;;11.00;90.00;;;;;;5073832;28;20078;-79
2022/12/31 04:34:29;;;;;;;0.80;0.70;;;11.00;90.00;;;;;;5074948;28;20032;-78
2022/12/31 04:36:55;;;;;;;1.08;0.77;;;11.00;90.00;;;;;;5073851;28;20433;-79
2022/12/31 04:39:20;;;;;;;0.98;0.70;;;11.00;90.00;;;;;;5074255;28;20086;-79
2022/12/31 04:41:46;;;;;;;1.38;0.70;;;11.00;90.00;;;;;;5074582;28;20530;-80
2022/12/31 04:44:11;;;;;;;1.00;0.70;;;11.00;90.00;;;;;;5073801;28;20376;-80
2022/12/31 04:46:37;;;;;;;0.80;0.80;;;11.00;90.00;;;;;;5073269;28;20021;-80
2022/12/31 04:49:03;;;;;;;1.17;0.75;;;11.00;89.90;;;;;;5074864;28;20115;-80
2022/12/31 04:51:29;;;;;;;0.80;0.60;;;11.00;89.90;;;;;;5073774;28;20133;-80
2022/12/31 04:53:56;;;;;;;1.00;0.70;;;11.00;89.80;;;;;;5073456;28;20402;-78
2022/12/31 04:56:22;;;;;;;1.05;0.77;;;11.00;89.80;;;;;;5072940;28;20032;-79
2022/12/31 04:58:56;;;;;;;0.70;0.60;;;10.90;89.80;;;;;;5075608;28;20041;-78
2022/12/31 05:01:22;;;;;;;0.80;0.70;;;11.00;89.80;;;;;;5073568;28;20024;-80
2022/12/31 05:03:48;;;;;;;0.50;0.50;;;11.00;89.80;;;;;;5073563;28;20034;-80
2022/12/31 05:06:16;;;;;;;0.80;0.70;;;11.00;89.70;;;;;;5074240;28;20017;-79
2022/12/31 05:08:42;;;;;;;1.00;0.70;;;11.00;89.70;;;;;;5074392;28;20027;-81
2022/12/31 05:11:08;;;;;;;1.17;0.60;;;11.00;89.70;;;;;;5071443;28;20025;-80
2022/12/31 05:13:34;;;;;;;0.98;0.70;;;11.00;89.70;;;;;;5054506;28;20139;-80
2022/12/31 05:16:01;;;;;;;1.17;0.70;;;11.00;89.70;;;;;;5053462;28;20077;-82
2022/12/31 05:18:27;;;;;;;0.93;0.70;;;11.00;89.70;;;;;;5053041;28;20029;-77
2022/12/31 05:20:53;;;;;;;0.75;0.68;;;11.00;89.70;;;;;;5053934;28;20291;-80
2022/12/31 05:23:18;;;;;;;0.70;0.70;;;11.00;89.60;;;;;;5048001;28;20581;-79
2022/12/31 05:25:45;;;;;;;0.80;0.68;;;11.00;89.70;;;;;;5050176;28;20039;-78
2022/12/31 05:28:12;;;;;;;1.77;0.75;;;11.00;89.60;;;;;;5066145;28;20198;-79
2022/12/31 05:30:37;;;;;;;1.08;0.70;;;11.00;89.70;;;;;;5067863;28;20025;-77
2022/12/31 05:33:04;;;;;;;0.68;0.57;;;11.00;89.70;;;;;;5068939;28;20032;-78
2022/12/31 05:35:29;;;;;;;1.05;0.50;;;11.00;89.70;;;;;;5066794;28;20124;-78
2022/12/31 05:37:55;;;;;;;1.50;0.75;;;11.00;89.70;;;;;;5066269;28;20096;-78
2022/12/31 05:40:20;;;;;;;0.70;0.60;;;11.00;89.70;;;;;;5066612;28;20028;-79
2022/12/31 05:42:46;;;;;;;1.00;0.70;;;11.00;89.70;;;;;;5067457;28;20425;-77
2022/12/31 05:45:12;;;;;;;1.13;0.60;;;11.00;89.70;;;;;;5065947;28;20036;-77
2022/12/31 05:47:39;;;;;;;0.88;0.70;;;11.00;89.70;;;;;;5067246;28;20031;-79
2022/12/31 05:50:06;;;;;;;0.63;0.60;;;11.00;90.00;;;;;;5067074;28;20791;-78
2022/12/31 05:52:31;;;;;;;0.85;0.60;;;11.00;89.70;;;;;;5066293;28;20027;-78
2022/12/31 05:54:57;;;;;;;0.50;0.50;;;11.00;89.60;;;;;;5070646;28;20112;-78
2022/12/31 05:57:22;;;;;;;1.70;0.80;;;11.00;89.70;;;;;;5069044;28;20028;-77
2022/12/31 05:59:48;;;;;;;0.50;0.50;;;11.00;89.60;;;;;;5067523;28;20064;-78
2022/12/31 06:02:13;;;;;;;1.15;0.70;;;11.00;89.70;;;;;;5070706;28;20036;-76
2022/12/31 06:04:39;;;;;;;0.50;0.50;;;11.00;90.00;;;;;;5064892;28;21012;-80
2022/12/31 06:07:04;;;;;;;0.88;0.57;;;11.00;89.60;;;;;;5063613;28;20059;-78
2022/12/31 06:09:30;;;;;;;0.60;0.60;;;11.00;89.70;;;;;;5061945;28;20021;-79
2022/12/31 06:11:55;;;;;;;0.60;0.60;;;11.00;89.70;;;;;;5069794;28;20091;-77
2022/12/31 06:14:21;;;;;;;0.60;0.60;;;11.00;89.70;;;;;;5071150;28;20037;-79
2022/12/31 06:16:46;;;;;;;1.08;0.70;;;11.00;89.80;;;;;;5072374;28;20089;-76
2022/12/31 06:19:12;;;;;;;0.40;0.40;;;11.00;89.70;;;;;;5072361;28;20073;-78
2022/12/31 06:21:37;;;;;;;0.40;0.40;;;11.00;89.80;;;;;;5070260;28;20032;-79
2022/12/31 06:24:03;;;;;;;0.55;0.50;;;11.00;89.80;;;;;;5072522;28;20033;-78
2022/12/31 06:26:28;;;;;;;1.40;0.52;;;11.00;89.80;;;;;;5072706;28;20064;-79
2022/12/31 06:28:54;;;;;;;0.70;0.70;;;11.00;89.80;;;;;;5071719;28;20462;-80
2022/12/31 06:31:19;;;;;;;0.70;0.57;;;11.00;89.80;;;;;;5072604;28;20029;-78
2022/12/31 06:33:45;;;;;;;0.98;0.63;;;11.00;89.80;;;;;;5071178;28;20469;-76
2022/12/31 06:36:13;;;;;;;0.60;0.50;;;11.00;89.80;;;;;;5072999;28;20048;-79
2022/12/31 06:38:40;;;;;;;0.50;0.50;;;11.10;89.90;;;;;;5071152;28;20052;-78
2022/12/31 06:41:07;;;;;;;0.50;0.50;;;11.00;89.90;;;;;;5070064;28;20032;-78
2022/12/31 06:43:34;;;;;;;1.00;0.80;;;11.00;89.90;;;;;;5072142;28;20029;-76
2022/12/31 06:46:00;;;;;;;0.55;0.50;;;11.10;90.00;;;;;;5070089;28;20427;-78
2022/12/31 06:48:26;;;;;;;0.77;0.57;;;11.00;90.00;;;;;;5068821;28;20153;-80
2022/12/31 06:50:51;;;;;;;0.60;0.60;;;11.00;90.00;;;;;;5072501;28;20507;-79
2022/12/31 06:53:17;;;;;;;0.60;0.60;;;11.00;90.20;;;;;;5069680;28;20016;-78
2022/12/31 06:55:43;;;;;;;0.55;0.50;;;11.00;90.20;;;;;;5069689;28;20079;-78
2022/12/31 06:58:12;;;;;;;0.60;0.57;;;11.00;90.10;;;;;;5070709;28;20518;-77
2022/12/31 07:00:49;;;;;;;0.60;0.50;;;11.00;90.10;;;;;;5068355;28;20032;-79
2022/12/31 07:03:38;;;;;;;0.90;0.55;;;11.00;90.10;;;;;;5069925;28;20036;-78
2022/12/31 07:06:15;;;;;;;0.80;0.50;;;11.00;90.20;;;;;;5067753;28;20497;-78
2022/12/31 07:08:54;;;;;;;0.70;0.60;;;11.00;90.20;;;;;;5069163;28;20056;-78
2022/12/31 07:11:29;;;;;;;0.75;0.60;;;11.00;90.10;;;;;;5070295;28;20071;-77
2022/12/31 07:14:17;;;;;;;0.50;0.50;;;11.00;90.10;;;;;;5068624;28;20029;-80
2022/12/31 07:16:59;;;;;;;0.60;0.40;;;11.00;90.10;;;;;;5071236;28;20029;-79
2022/12/31 07:19:58;;;;;;;0.60;0.50;;;11.00;90.10;;;;;;5071867;28;20035;-77
2022/12/31 07:22:24;;;;;;;0.85;0.60;;;11.00;90.10;;;;;;5072148;28;20025;-81
2022/12/31 07:24:50;;;;;;;0.52;0.52;;;11.00;90.10;;;;;;5054654;28;20606;-78
2022/12/31 07:27:53;;;;;;;0.60;0.60;;;11.00;90.10;;;;;;5050799;28;20668;-78
2022/12/31 07:30:57;;;;;;;0.82;0.63;;;11.00;90.00;;;;;;5051337;28;20025;-78
2022/12/31 07:33:38;;;;;;;0.50;0.40;;;11.00;90.00;;;;;;5045370;28;20037;-80
2022/12/31 07:36:32;;;;;;;0.50;0.47;;;11.10;90.10;;;;;;5049459;28;20148;-80
2022/12/31 07:39:07;;;;;;;0.50;0.50;;;11.10;90.10;;;;;;5051663;28;20032;-80
2022/12/31 07:41:42;;;;;;;1.00;0.52;;;11.00;90.10;;;;;;5051747;28;20032;-79
2022/12/31 07:44:29;;;;;;;0.65;0.50;;;11.00;90.10;;;;;;5048883;28;20509;-79
2022/12/31 07:46:56;;;;;;;0.50;0.50;;;11.10;90.10;;;;;;5051677;28;20127;-79
2022/12/31 07:49:24;;;;;;;0.77;0.50;;;11.10;90.10;;;;;;5050881;28;20032;-76
2022/12/31 07:51:50;;;;;;;0.80;0.60;;;11.00;90.00;;;;;;5050884;28;20025;-80
2022/12/31 07:54:15;;;;;;;0.60;0.50;;;11.00;90.00;;;;;;5050349;28;20086;-78
2022/12/31 07:56:42;;;;;;;0.63;0.50;;;11.00;90.00;;;;;;5049143;28;20112;-78
2022/12/31 07:59:30;;;;;;;0.45;0.43;;;11.10;90.00;;;;;;5047654;28;20025;-77
2022/12/31 08:02:02;;;;;;;0.85;0.50;;;11.00;90.00;;;;;;5057192;28;20520;-80
2022/12/31 08:04:41;;;;;;;0.50;0.50;;;11.00;90.00;;;;;;5070231;28;20097;-75
2022/12/31 08:07:33;;;;;;;0.50;0.50;;;11.10;90.00;;;;;;5069047;28;20029;-78
2022/12/31 08:10:37;;;;;;;1.10;0.70;;;11.00;90.00;;;;;;5068504;28;20025;-78
2022/12/31 08:13:08;;;;;;;0.60;0.60;;;11.10;90.00;;;;;;5024000;28;20492;-77
2022/12/31 08:15:35;;;;;;;0.53;0.47;;;11.10;90.00;;;;;;5054522;28;20052;-79
2022/12/31 08:18:01;;;;;;;0.75;0.55;;;11.00;90.00;;;;;;5066422;28;20263;-79
2022/12/31 08:20:29;;;;;;;0.40;0.40;;;11.10;90.00;;;;;;5068897;28;20376;-81
2022/12/31 08:22:57;;;;;;;0.47;0.40;;;11.00;89.90;;;;;;5069770;28;20024;-82
2022/12/31 08:25:51;;;;;;;0.60;0.50;;;11.10;89.90;;;;;;5068374;28;20032;-79
2022/12/31 08:28:28;;;;;;;0.50;0.50;;;11.00;89.90;;;;;;5069616;28;20028;-78
2022/12/31 08:30:59;;;;;;;0.50;0.40;;;11.10;89.90;;;;;;5065801;28;20466;-76
2022/12/31 08:33:49;;;;;;;0.47;0.40;;;11.00;89.90;;;;;;5066641;28;20071;-77
2022/12/31 08:36:31;;;;;;;0.40;0.40;;;11.00;89.80;;;;;;5065568;28;20029;-75
2022/12/31 08:39:06;;;;;;;1.30;0.60;;;11.00;89.80;;;;;;5063599;28;20469;-77
2022/12/31 08:41:50;;;;;;;0.50;0.50;;;11.10;89.90;;;;;;5064250;28;20165;-78
2022/12/31 08:44:37;;;;;;;0.30;0.30;;;11.00;89.80;;;;;;5065595;28;20040;-76
2022/12/31 08:47:21;;;;;;;0.68;0.60;;;11.10;89.80;;;;;;5065379;28;20024;-77
2022/12/31 08:49:46;;;;;;;0.55;0.40;;;11.00;89.80;;;;;;5065626;28;20021;-76
2022/12/31 08:52:17;;;;;;;0.93;0.50;;;11.10;89.80;;;;;;5065111;28;20094;-78
2022/12/31 08:54:43;;;;;;;0.50;0.50;;;11.10;89.80;;;;;;5065491;28;20035;-75
2022/12/31 08:57:29;;;;;;;1.00;0.40;;;11.10;89.80;;;;;;5065471;28;20279;-77
2022/12/31 09:00:09;;;;;;;0.57;0.40;;;11.10;89.80;;;;;;5063997;28;20490;-76
2022/12/31 09:02:50;;;;;;;0.47;0.45;;;11.10;89.80;;;;;;5064134;28;20033;-77
2022/12/31 09:05:23;;;;;;;0.60;0.52;;;11.10;89.80;;;;;;5065723;28;20024;-77
2022/12/31 09:08:18;;;;;;;0.60;0.50;;;11.10;89.70;;;;;;5063844;28;20111;-78
2022/12/31 09:10:54;;;;;;;2.30;1.30;;;11.10;89.70;;;;;;5063825;28;20058;-78
2022/12/31 09:13:39;;;;;;;4.95;1.80;;;11.10;89.80;;;;;;5065647;28;20039;-76
2022/12/31 09:16:23;;;;;;;2.40;1.13;;;11.10;89.80;;;;;;5065976;28;20035;-77
2022/12/31 09:18:49;;;;;;;4.90;2.00;;;11.10;89.80;;;;;;5063770;28;20218;-78
2022/12/31 09:21:15;;;;;;;4.32;1.95;;;11.10;89.80;;;;;;5065113;28;20024;-77
2022/12/31 09:23:41;;;;;;;2.58;1.25;;;11.10;90.10;;;;;;5064943;28;20137;-78
2022/12/31 09:26:14;;;;;;;2.40;1.20;;;11.10;89.80;;;;;;5065144;28;20547;-78
2022/12/31 09:29:03;;;;;;;2.80;1.35;;;11.10;89.80;;;;;;5064647;28;20082;-80
2022/12/31 09:31:43;;;;;;;3.63;1.58;;;11.10;89.80;;;;;;5069353;28;20028;-81
2022/12/31 09:34:29;;;;;;;3.67;1.90;;;11.10;89.80;;;;;;5069203;28;20029;-83
2022/12/31 09:37:01;;;;;;;2.97;1.75;;;11.20;89.90;;;;;;5070524;28;20123;-79
2022/12/31 09:39:30;;;;;;;4.40;2.28;;;11.20;89.90;;;;;;5070272;28;20028;-78
2022/12/31 09:42:09;;;;;;;5.82;2.78;;;11.20;89.80;;;;;;5069694;28;20020;-78
2022/12/31 09:45:06;;;;;;;6.40;3.25;;;11.20;89.80;;;;;;5070749;28;20039;-78
2022/12/31 09:48:03;;;;;;;7.65;4.25;;;11.20;89.70;;;;;;5066670;28;20111;-76
2022/12/31 09:50:47;;;;;;;11.15;7.10;;;11.20;89.70;;;;;;5063380;28;20024;-74
2022/12/31 09:53:35;;;;;;;13.00;7.82;;;11.20;89.70;;;;;;5066071;28;20081;-75
2022/12/31 09:56:24;;;;;;;23.42;16.58;;;11.20;89.70;;;;;;5063160;28;20041;-77
2022/12/31 09:59:05;;;;;;;78.03;37.08;;;11.20;89.80;;;;;;5067209;28;20131;-76
2022/12/31 10:01:30;;;;;;;;;;;11.30;91.10;;;;;;5067440;28;20554;-77
2022/12/31 10:04:18;;;;;;;57.03;35.97;;;11.30;91.30;;;;;;5067059;28;20015;-79
2022/12/31 10:07:02;;;;;;;91.13;59.17;;;11.40;92.10;;;;;;5068132;28;20027;-75
2022/12/31 10:10:04;;;;;;;90.07;61.35;;;11.40;92.50;;;;;;5066268;28;20020;-76
2022/12/31 10:12:56;;;;;;;92.90;58.90;;;11.40;93.30;;;;;;5065924;28;20027;-80
2022/12/31 10:15:27;;;;;;;84.88;60.17;;;11.40;93.80;;;;;;5067064;28;20048;-79
2022/12/31 10:18:24;;;;;;;82.40;57.60;;;11.40;93.80;;;;;;5069380;28;20048;-79
2022/12/31 10:21:33;;;;;;;82.25;58.05;;;11.40;94.50;;;;;;5066654;28;20065;-77
2022/12/31 10:24:22;;;;;;;77.85;54.83;;;11.40;94.20;;;;;;5046596;28;20029;-77
2022/12/31 10:26:54;;;;;;;71.75;51.83;;;11.50;94.40;;;;;;5068324;28;20116;-77
2022/12/31 10:29:34;;;;;;;69.22;48.33;;;11.40;94.90;;;;;;5066328;28;20075;-76
2022/12/31 10:32:45;;;;;;;67.72;47.75;;;11.40;94.40;;;;;;5066567;28;20375;-75
2022/12/31 10:35:13;;;;;;;61.15;45.85;;;11.40;94.40;;;;;;5062059;28;20040;-77
2022/12/31 10:37:50;;;;;;;55.38;41.33;;;11.40;94.20;;;;;;5067134;28;20867;-76
2022/12/31 10:40:41;;;;;;;55.67;42.85;;;11.40;94.60;;;;;;5066528;28;20855;-76
2022/12/31 10:43:34;;;;;;;55.53;42.53;;;11.40;94.40;;;;;;5069208;28;20106;-75
2022/12/31 10:46:33;;;;;;;52.75;39.60;;;11.40;94.30;;;;;;5069254;28;20028;-76
2022/12/31 10:49:20;;;;;;;48.95;36.63;;;11.40;94.40;;;;;;5070937;28;20382;-77
2022/12/31 10:52:02;;;;;;;51.15;39.33;;;11.50;94.70;;;;;;5069720;28;20093;-75
2022/12/31 10:54:56;;;;;;;50.22;38.75;;;11.40;94.50;;;;;;5069621;28;20054;-74
2022/12/31 10:57:50;;;;;;;50.13;38.97;;;11.50;94.60;;;;;;5070513;28;20176;-76
2022/12/31 11:00:20;;;;;;;46.55;37.15;;;11.50;94.60;;;;;;5069844;28;20382;-75
2022/12/31 11:03:18;;;;;;;46.88;35.88;;;11.50;94.60;;;;;;5069695;28;20039;-76
2022/12/31 11:05:52;;;;;;;49.25;42.28;;;11.50;94.60;;;;;;5036175;28;20117;-76
2022/12/31 11:08:26;;;;;;;49.65;40.55;;;11.50;94.50;;;;;;5069526;28;20452;-75
2022/12/31 11:11:03;;;;;;;44.03;35.47;;;11.50;94.40;;;;;;5069348;28;20397;-74
2022/12/31 11:13:41;;;;;;;46.25;38.42;;;11.50;94.40;;;;;;5068236;28;20111;-75
2022/12/31 11:16:25;;;;;;;47.10;37.67;;;11.50;93.90;;;;;;5068134;28;20064;-79
2022/12/31 11:19:04;;;;;;;45.95;36.67;;;11.50;94.20;;;;;;5062730;28;20032;-74
2022/12/31 11:21:51;;;;;;;44.15;35.60;;;11.50;94.30;;;;;;5066695;28;20056;-75
2022/12/31 11:24:33;;;;;;;38.70;30.13;;;11.50;94.60;;;;;;5065415;28;20036;-76
2022/12/31 11:27:20;;;;;;;39.00;30.52;;;11.50;94.60;;;;;;5066976;28;20020;-75
2022/12/31 11:30:05;;;;;;;34.28;28.48;;;11.40;94.40;;;;;;5069955;28;20025;-75
2022/12/31 11:32:53;;;;;;;30.65;25.27;;;11.50;94.80;;;;;;5069369;28;20029;-76
2022/12/31 11:35:43;;;;;;;35.92;30.23;;;11.50;95.40;;;;;;5068174;28;20445;-77
2022/12/31 11:38:34;;;;;;;34.10;29.48;;;11.40;94.60;;;;;;5064927;28;20021;-77
2022/12/31 11:41:18;;;;;;;35.15;29.45;;;11.50;94.70;;;;;;5068022;28;20976;-76
2022/12/31 11:43:54;;;;;;;31.85;27.20;;;11.50;95.10;;;;;;5069537;28;20047;-76
2022/12/31 11:46:39;;;;;;;31.08;25.60;;;11.40;94.80;;;;;;5067814;28;20028;-80
2022/12/31 11:49:42;;;;;;;30.08;25.30;;;11.50;95.00;;;;;;5068268;28;20471;-75
2022/12/31 11:52:22;;;;;;;29.92;25.10;;;11.50;95.30;;;;;;5066685;28;20032;-79
2022/12/31 11:54:48;;;;;;;31.13;26.90;;;11.50;95.30;;;;;;5064598;28;20051;-76
2022/12/31 11:57:22;;;;;;;33.65;24.10;;;11.50;94.60;;;;;;5067159;28;20037;-78
2022/12/31 11:59:55;;;;;;;26.02;21.38;;;11.50;95.40;;;;;;5068904;28;20545;-79
2022/12/31 12:02:24;;;;;;;28.40;23.60;;;11.50;95.60;;;;;;5048249;28;20036;-75
2022/12/31 12:04:51;;;;;;;24.67;21.38;;;11.50;95.20;;;;;;5048622;28;20116;-76
2022/12/31 12:07:18;;;;;;;31.08;26.00;;;11.50;95.10;;;;;;5048644;28;20574;-79
2022/12/31 12:09:44;;;;;;;25.33;22.08;;;11.50;94.80;;;;;;5047889;28;20025;-77
2022/12/31 12:12:11;;;;;;;25.13;20.55;;;11.50;94.60;;;;;;5047216;28;20036;-76
2022/12/31 12:14:40;;;;;;;25.85;21.48;;;11.50;95.00;;;;;;5049008;28;20036;-75
2022/12/31 12:17:09;;;;;;;25.63;20.98;;;11.50;95.10;;;;;;5048852;28;20040;-75
2022/12/31 12:19:43;;;;;;;24.25;21.10;;;11.60;94.90;;;;;;5048709;28;20491;-77
2022/12/31 12:22:19;;;;;;;22.95;19.35;;;11.50;94.90;;;;;;5048636;28;20060;-77
2022/12/31 12:25:00;;;;;;;28.33;19.27;;;11.50;94.70;;;;;;5054838;28;20491;-77
2022/12/31 12:27:29;;;;;;;23.15;20.02;;;11.50;94.80;;;;;;5053546;28;20040;-74
2022/12/31 12:29:54;;;;;;;23.48;18.33;;;11.50;94.60;;;;;;5046522;28;20032;-75
2022/12/31 12:32:25;;;;;;;21.60;18.63;;;11.50;94.50;;;;;;5046953;28;20021;-79
2022/12/31 12:34:51;;;;;;;22.85;18.88;;;11.50;94.40;;;;;;5048569;28;20071;-77
2022/12/31 12:37:23;;;;;;;23.98;18.77;;;11.50;94.40;;;;;;5047684;28;20791;-77
2022/12/31 12:40:01;;;;;;;21.20;17.60;;;11.50;94.50;;;;;;5047798;28;20033;-76
2022/12/31 12:42:28;;;;;;;21.48;16.38;;;11.60;94.50;;;;;;5047419;28;20029;-77
2022/12/31 12:45:06;;;;;;;22.52;16.70;;;11.60;95.00;;;;;;5048565;28;20483;-77
2022/12/31 12:47:33;;;;;;;23.95;16.98;;;11.50;94.70;;;;;;5047128;28;20071;-77
2022/12/31 12:49:59;;;;;;;22.05;16.58;;;11.60;94.60;;;;;;5049801;28;20468;-76
2022/12/31 12:53:00;;;;;;;21.48;16.20;;;11.60;94.90;;;;;;5048498;28;20025;-80
2022/12/31 12:56:09;;;;;;;21.48;15.20;;;11.60;94.70;;;;;;5048125;28;20035;-78
2022/12/31 12:58:49;;;;;;;20.63;15.07;;;11.60;95.10;;;;;;5047496;28;20064;-77
2022/12/31 13:01:27;;;;;;;19.80;14.10;;;11.60;94.80;;;;;;5047888;28;20037;-76
2022/12/31 13:04:28;;;;;;;17.60;12.77;;;11.60;95.00;;;;;;5047749;28;20033;-78
2022/12/31 13:07:28;;;;;;;16.90;11.45;;;11.60;95.30;;;;;;5044146;28;20040;-75
2022/12/31 13:10:02;;;;;;;15.18;12.13;;;11.60;95.30;;;;;;5046668;28;20021;-75
2022/12/31 13:12:50;;;;;;;15.05;10.57;;;11.60;94.90;;;;;;5048239;28;20355;-79
2022/12/31 13:15:44;;;;;;;16.52;12.07;;;11.60;94.30;;;;;;5048280;28;20075;-80
2022/12/31 13:18:28;;;;;;;13.65;10.35;;;11.60;94.20;;;;;;5048108;28;20460;-75
2022/12/31 13:21:16;;;;;;;15.50;9.30;;;11.60;94.20;;;;;;5046712;28;20067;-76
2022/12/31 13:23:57;;;;;;;13.93;9.27;;;11.50;94.00;;;;;;5046958;28;20029;-76